sensor_id;sensor_type;location;lat;lon;timestamp;temperature;humidity
45735;DHT22;31446;49.632;8.328;2024-01-06T00:04:54;4.80;99.90
45735;DHT22;31446;49.632;8.328;2024-01-06T00:20:01;4.80;99.90
45735;DHT22;31446;49.632;8.328;2024-01-06T00:35:11;4.90;99.90
45735;DHT22;31446;49.632;8.328;2024-01-06T00:50:20;4.70;99.90
45735;DHT22;31446;49.632;8.328;2024-01-06T01:05:28;4.90;99.90
45735;DHT22;31446;49.632;8.328;2024-01-06T01:20:34;5.50;99.90
45735;DHT22;31446;49.632;8.328;2024-01-06T01:35:41;5.80;99.90
45735;DHT22;31446;49.632;8.328;2024-01-06T01:50:47;5.80;99.90
45735;DHT22;31446;49.632;8.328;2024-01-06T02:05:53;5.50;99.90
45735;DHT22;31446;49.632;8.328;2024-01-06T02:21:00;5.60;99.90
45735;DHT22;31446;49.632;8.328;2024-01-06T02:36:07;5.70;99.90
45735;DHT22;31446;49.632;8.328;2024-01-06T02:51:13;5.80;99.90
45735;DHT22;31446;49.632;8.328;2024-01-06T03:06:20;6.00;99.90
45735;DHT22;31446;49.632;8.328;2024-01-06T03:21:26;6.00;99.90
45735;DHT22;31446;49.632;8.328;2024-01-06T03:36:32;6.00;99.90
45735;DHT22;31446;49.632;8.328;2024-01-06T03:51:38;6.00;99.90
45735;DHT22;31446;49.632;8.328;2024-01-06T04:06:44;6.00;99.90
45735;DHT22;31446;49.632;8.328;2024-01-06T04:21:50;6.10;99.90
45735;DHT22;31446;49.632;8.328;2024-01-06T04:36:57;6.20;99.90
45735;DHT22;31446;49.632;8.328;2024-01-06T04:52:05;6.10;99.90
45735;DHT22;31446;49.632;8.328;2024-01-06T05:07:11;6.10;99.90
45735;DHT22;31446;49.632;8.328;2024-01-06T05:22:17;6.00;99.90
45735;DHT22;31446;49.632;8.328;2024-01-06T05:37:24;5.90;99.90
45735;DHT22;31446;49.632;8.328;2024-01-06T05:52:31;6.00;99.90
45735;DHT22;31446;49.632;8.328;2024-01-06T06:07:38;6.00;99.90
45735;DHT22;31446;49.632;8.328;2024-01-06T06:22:45;6.00;99.90
45735;DHT22;31446;49.632;8.328;2024-01-06T06:37:51;6.10;99.90
45735;DHT22;31446;49.632;8.328;2024-01-06T06:52:58;6.20;99.90
45735;DHT22;31446;49.632;8.328;2024-01-06T07:08:04;6.10;99.90
45735;DHT22;31446;49.632;8.328;2024-01-06T07:23:11;6.20;99.90
45735;DHT22;31446;49.632;8.328;2024-01-06T07:38:17;6.20;99.90
45735;DHT22;31446;49.632;8.328;2024-01-06T07:53:23;6.30;99.90
45735;DHT22;31446;49.632;8.328;2024-01-06T08:08:29;6.40;99.90
45735;DHT22;31446;49.632;8.328;2024-01-06T08:23:35;6.40;99.90
45735;DHT22;31446;49.632;8.328;2024-01-06T08:38:42;6.60;99.90
45735;DHT22;31446;49.632;8.328;2024-01-06T08:53:48;6.70;99.90
45735;DHT22;31446;49.632;8.328;2024-01-06T09:08:54;6.90;99.90
45735;DHT22;31446;49.632;8.328;2024-01-06T09:24:00;7.40;99.90
45735;DHT22;31446;49.632;8.328;2024-01-06T09:39:09;7.60;99.90
45735;DHT22;31446;49.632;8.328;2024-01-06T09:54:15;7.80;99.90
45735;DHT22;31446;49.632;8.328;2024-01-06T10:09:26;7.70;99.90
45735;DHT22;31446;49.632;8.328;2024-01-06T10:24:32;7.70;99.90
45735;DHT22;31446;49.632;8.328;2024-01-06T10:39:38;7.90;99.90
45735;DHT22;31446;49.632;8.328;2024-01-06T10:54:45;8.20;99.90
45735;DHT22;31446;49.632;8.328;2024-01-06T11:09:57;8.70;99.90
45735;DHT22;31446;49.632;8.328;2024-01-06T11:25:07;8.80;99.90
45735;DHT22;31446;49.632;8.328;2024-01-06T11:40:23;9.00;99.90
45735;DHT22;31446;49.632;8.328;2024-01-06T11:55:29;9.40;99.90
45735;DHT22;31446;49.632;8.328;2024-01-06T12:10:37;8.90;99.90
45735;DHT22;31446;49.632;8.328;2024-01-06T12:25:44;9.00;99.90
45735;DHT22;31446;49.632;8.328;2024-01-06T12:40:53;8.80;99.90
45735;DHT22;31446;49.632;8.328;2024-01-06T12:56:01;8.50;99.90
45735;DHT22;31446;49.632;8.328;2024-01-06T13:11:08;8.60;99.90
45735;DHT22;31446;49.632;8.328;2024-01-06T13:26:14;8.70;99.90
45735;DHT22;31446;49.632;8.328;2024-01-06T13:41:21;8.40;99.90
45735;DHT22;31446;49.632;8.328;2024-01-06T13:56:28;8.30;99.90
45735;DHT22;31446;49.632;8.328;2024-01-06T14:11:34;8.40;99.90
45735;DHT22;31446;49.632;8.328;2024-01-06T14:26:40;8.40;99.90
45735;DHT22;31446;49.632;8.328;2024-01-06T14:41:46;8.10;99.90
45735;DHT22;31446;49.632;8.328;2024-01-06T14:56:52;7.90;99.90
45735;DHT22;31446;49.632;8.328;2024-01-06T15:11:58;7.80;99.90
45735;DHT22;31446;49.632;8.328;2024-01-06T15:27:05;7.70;99.90
45735;DHT22;31446;49.632;8.328;2024-01-06T15:42:11;7.40;99.90
45735;DHT22;31446;49.632;8.328;2024-01-06T15:57:17;7.20;99.90
45735;DHT22;31446;49.632;8.328;2024-01-06T16:12:23;6.80;99.90
45735;DHT22;31446;49.632;8.328;2024-01-06T16:27:32;6.40;99.90
45735;DHT22;31446;49.632;8.328;2024-01-06T16:42:38;6.30;99.90
45735;DHT22;31446;49.632;8.328;2024-01-06T16:57:44;6.20;99.90
45735;DHT22;31446;49.632;8.328;2024-01-06T17:12:51;6.10;99.90
45735;DHT22;31446;49.632;8.328;2024-01-06T17:27:57;6.10;99.90
45735;DHT22;31446;49.632;8.328;2024-01-06T17:43:04;5.90;99.90
45735;DHT22;31446;49.632;8.328;2024-01-06T17:58:10;5.80;99.90
45735;DHT22;31446;49.632;8.328;2024-01-06T18:13:16;5.70;99.90
45735;DHT22;31446;49.632;8.328;2024-01-06T18:28:23;5.80;99.90
45735;DHT22;31446;49.632;8.328;2024-01-06T18:43:29;5.90;99.90
45735;DHT22;31446;49.632;8.328;2024-01-06T18:58:35;5.70;99.90
45735;DHT22;31446;49.632;8.328;2024-01-06T19:13:41;5.60;99.90
45735;DHT22;31446;49.632;8.328;2024-01-06T19:28:47;5.50;99.90
45735;DHT22;31446;49.632;8.328;2024-01-06T19:43:54;5.50;99.90
45735;DHT22;31446;49.632;8.328;2024-01-06T19:59:03;5.60;99.90
45735;DHT22;31446;49.632;8.328;2024-01-06T20:14:09;5.50;99.90
45735;DHT22;31446;49.632;8.328;2024-01-06T20:29:15;5.60;99.90
45735;DHT22;31446;49.632;8.328;2024-01-06T20:44:22;5.50;99.90
45735;DHT22;31446;49.632;8.328;2024-01-06T20:59:28;5.60;99.90
45735;DHT22;31446;49.632;8.328;2024-01-06T21:14:34;5.40;99.90
45735;DHT22;31446;49.632;8.328;2024-01-06T21:29:41;5.60;99.90
45735;DHT22;31446;49.632;8.328;2024-01-06T21:44:48;5.50;99.90
45735;DHT22;31446;49.632;8.328;2024-01-06T21:59:56;5.60;99.90
45735;DHT22;31446;49.632;8.328;2024-01-06T22:15:02;5.50;99.90
45735;DHT22;31446;49.632;8.328;2024-01-06T22:30:17;5.70;99.90
45735;DHT22;31446;49.632;8.328;2024-01-06T22:45:25;5.60;99.90
45735;DHT22;31446;49.632;8.328;2024-01-06T23:00:33;5.50;99.90
45735;DHT22;31446;49.632;8.328;2024-01-06T23:15:42;5.40;99.90
45735;DHT22;31446;49.632;8.328;2024-01-06T23:30:48;5.50;99.90
45735;DHT22;31446;49.632;8.328;2024-01-06T23:45:55;5.40;99.90
